createdAt,value
2022-12-03T00:00:12.470Z,100925.66
2022-12-03T00:02:41.545Z,100934.81
2022-12-03T00:05:09.680Z,100934.50
2022-12-03T00:07:37.170Z,100936.94
2022-12-03T00:10:05.685Z,100944.34
2022-12-03T00:12:33.121Z,100944.50
2022-12-03T00:15:00.596Z,100951.22
2022-12-03T00:17:28.031Z,100944.50
2022-12-03T00:19:55.463Z,100957.44
2022-12-03T00:22:22.915Z,100953.66
2022-12-03T00:24:50.608Z,100955.72
2022-12-03T00:27:18.140Z,100956.75
2022-12-03T00:29:45.901Z,100958.66
2022-12-03T00:32:14.166Z,100954.13
2022-12-03T00:34:41.588Z,100958.47
2022-12-03T00:37:09.175Z,100956.91
2022-12-03T00:39:36.661Z,100953.44
2022-12-03T00:42:04.361Z,100957.09
2022-12-03T00:44:31.826Z,100954.31
2022-12-03T00:46:59.351Z,100949.31
2022-12-03T00:49:26.874Z,100951.22
2022-12-03T00:51:54.373Z,100956.41
2022-12-03T00:54:25.548Z,100954.47
2022-12-03T00:56:56.016Z,100956.53
2022-12-03T00:59:23.422Z,100957.22
2022-12-03T01:01:50.956Z,100959.66
2022-12-03T01:04:19.520Z,100955.16
2022-12-03T01:06:47.463Z,100954.59
2022-12-03T01:09:15.434Z,100962.06
2022-12-03T01:11:42.840Z,100958.97
2022-12-03T01:14:13.615Z,100958.41
2022-12-03T01:16:41.843Z,100952.03
2022-12-03T01:19:10.882Z,100948.78
2022-12-03T01:21:38.313Z,100946.16
2022-12-03T01:24:05.997Z,100945.66
2022-12-03T01:26:33.485Z,100945.81
2022-12-03T01:29:00.928Z,100951.69
2022-12-03T01:31:47.054Z,100954.53
2022-12-03T01:34:14.541Z,100960.69
2022-12-03T01:36:42.082Z,100962.75
2022-12-03T01:39:09.546Z,100959.66
2022-12-03T01:41:37.308Z,100957.94
2022-12-03T01:44:23.319Z,100961.59
2022-12-03T01:46:52.679Z,100957.44
2022-12-03T01:49:24.920Z,100963.19
2022-12-03T01:51:53.792Z,100958.47
2022-12-03T01:54:40.416Z,100954.88
2022-12-03T01:57:26.558Z,100951.22
2022-12-03T01:59:56.471Z,100943.47
2022-12-03T02:02:29.311Z,100941.88
2022-12-03T02:04:57.854Z,100950.19
2022-12-03T02:07:31.748Z,100943.78
2022-12-03T02:10:02.854Z,100952.81
2022-12-03T02:12:38.406Z,100957.16
2022-12-03T02:15:07.298Z,100949.94
2022-12-03T02:17:34.880Z,100945.75
2022-12-03T02:20:07.843Z,100953.03
2022-12-03T02:25:23.280Z,100946.28
2022-12-03T02:27:53.060Z,100940.44
2022-12-03T02:30:22.800Z,100941.16
2022-12-03T02:32:51.799Z,100943.59
2022-12-03T02:35:30.331Z,100944.69
2022-12-03T02:38:04.022Z,100943.13
2022-12-03T02:40:33.301Z,100943.81
2022-12-03T02:43:03.831Z,100944.38
2022-12-03T02:45:36.269Z,100938.53
2022-12-03T02:48:08.629Z,100939.22
2022-12-03T02:50:39.508Z,100941.28
2022-12-03T02:53:17.440Z,100941.59
2022-12-03T02:55:46.224Z,100941.94
2022-12-03T02:58:15.082Z,100938.13
2022-12-03T03:00:44.006Z,100940.56
2022-12-03T03:03:12.388Z,100949.41
2022-12-03T03:05:41.481Z,100947.34
2022-12-03T03:08:10.733Z,100946.28
2022-12-03T03:10:40.592Z,100942.69
2022-12-03T03:13:11.632Z,100939.72
2022-12-03T03:15:40.589Z,100945.78
2022-12-03T03:18:09.226Z,100947.34
2022-12-03T03:20:37.364Z,100953.22
2022-12-03T03:23:18.510Z,100950.31
2022-12-03T03:25:50.668Z,100945.63
2022-12-03T03:28:20.645Z,100955.22
2022-12-03T03:30:48.906Z,100952.59
2022-12-03T03:33:16.896Z,100952.44
2022-12-03T03:35:46.359Z,100958.50
2022-12-03T03:38:15.036Z,100960.13
2022-12-03T03:40:42.965Z,100966.69
2022-12-03T03:43:12.053Z,100965.34
2022-12-03T03:45:39.727Z,100965.50
2022-12-03T03:48:07.542Z,100958.78
2022-12-03T03:50:35.498Z,100962.41
2022-12-03T03:53:04.314Z,100965.03
2022-12-03T03:55:32.428Z,100955.81
2022-12-03T03:58:00.169Z,100959.69
2022-12-03T04:00:27.796Z,100955.38
2022-12-03T04:02:55.247Z,100946.72
2022-12-03T04:05:24.065Z,100949.47
2022-12-03T04:07:51.704Z,100945.53
2022-12-03T04:10:37.848Z,100948.09
2022-12-03T04:13:05.792Z,100941.53
2022-12-03T04:15:33.220Z,100942.06
2022-12-03T04:18:19.721Z,100945.72
2022-12-03T04:20:47.201Z,100946.41
2022-12-03T04:23:14.699Z,100946.59
2022-12-03T04:26:20.860Z,100941.91
2022-12-03T04:28:51.048Z,100948.34
2022-12-03T04:31:37.236Z,100956.47
2022-12-03T04:34:23.756Z,100955.97
2022-12-03T04:36:51.279Z,100954.09
2022-12-03T04:39:18.716Z,100951.16
2022-12-03T04:41:46.198Z,100946.47
2022-12-03T04:44:32.352Z,100953.75
2022-12-03T04:47:03.685Z,100958.66
2022-12-03T04:49:31.624Z,100965.22
2022-12-03T04:51:59.220Z,100963.66
2022-12-03T04:54:27.759Z,100958.09
2022-12-03T04:56:55.220Z,100956.25
2022-12-03T04:59:22.784Z,100962.47
2022-12-03T05:01:50.515Z,100964.75
2022-12-03T05:04:18.097Z,100965.09
2022-12-03T05:06:45.831Z,100958.00
2022-12-03T05:09:14.171Z,100959.03
2022-12-03T05:11:42.130Z,100962.34
2022-12-03T05:14:10.484Z,100961.63
2022-12-03T05:16:38.804Z,100959.59
2022-12-03T05:19:07.985Z,100972.41
2022-12-03T05:21:35.711Z,100964.25
2022-12-03T05:24:03.296Z,100968.75
2022-12-03T05:26:30.724Z,100969.28
2022-12-03T05:28:58.189Z,100972.56
2022-12-03T05:31:25.851Z,100964.94
2022-12-03T05:33:54.725Z,100970.19
2022-12-03T05:36:22.291Z,100976.78
2022-12-03T05:38:49.816Z,100979.34
2022-12-03T05:41:36.026Z,100974.50
2022-12-03T05:44:03.497Z,100977.13
2022-12-03T05:46:31.407Z,100967.44
2022-12-03T05:48:58.925Z,100974.19
2022-12-03T05:51:26.352Z,100969.88
2022-12-03T05:53:53.870Z,100965.38
2022-12-03T05:56:21.593Z,100965.38
2022-12-03T05:58:49.831Z,100967.09
2022-12-03T06:01:17.372Z,100958.78
2022-12-03T06:03:45.000Z,100964.00
2022-12-03T06:06:12.607Z,100968.53
2022-12-03T06:08:40.176Z,100959.75
2022-12-03T06:11:07.670Z,100960.91
2022-12-03T06:13:35.117Z,100967.03
2022-12-03T06:16:02.720Z,100979.44
2022-12-03T06:18:30.267Z,100979.16
2022-12-03T06:20:57.727Z,100969.78
2022-12-03T06:23:25.256Z,100968.59
2022-12-03T06:25:52.708Z,100973.41
2022-12-03T06:28:20.116Z,100970.88
2022-12-03T06:30:47.593Z,100979.50
2022-12-03T06:33:15.074Z,100982.97
2022-12-03T06:35:42.598Z,100990.31
2022-12-03T06:38:10.055Z,100983.16
2022-12-03T06:40:38.311Z,100993.78
2022-12-03T06:43:05.988Z,100992.88
2022-12-03T06:45:33.411Z,100996.84
2022-12-03T06:48:00.838Z,100996.53
2022-12-03T06:50:28.327Z,100997.75
2022-12-03T06:52:55.808Z,100996.69
2022-12-03T06:55:23.276Z,100995.50
2022-12-03T06:57:50.689Z,100999.66
2022-12-03T07:00:18.678Z,100995.50
2022-12-03T07:02:46.199Z,101004.22
2022-12-03T07:05:14.170Z,101011.81
2022-12-03T07:07:41.665Z,101006.59
2022-12-03T07:10:09.840Z,101002.63
2022-12-03T07:12:37.906Z,101007.31
2022-12-03T07:15:05.816Z,100996.91
2022-12-03T07:17:33.307Z,100997.44
2022-12-03T07:20:00.742Z,100993.28
2022-12-03T07:22:28.268Z,100999.50
2022-12-03T07:24:55.998Z,101002.13
2022-12-03T07:27:23.756Z,100995.16
2022-12-03T07:29:51.670Z,100996.03
2022-12-03T07:32:19.137Z,100996.59
2022-12-03T07:34:46.652Z,100997.44
2022-12-03T07:37:17.490Z,100998.47
2022-12-03T07:39:47.631Z,101007.69
2022-12-03T07:42:15.068Z,100999.34
2022-12-03T07:44:42.466Z,100999.66
2022-12-03T07:47:10.070Z,101009.03
2022-12-03T07:49:37.535Z,101001.25
2022-12-03T07:52:20.056Z,101002.97
2022-12-03T07:54:47.506Z,101000.22
2022-12-03T07:57:14.893Z,101004.22
2022-12-03T07:59:42.362Z,100998.66
2022-12-03T08:02:10.004Z,100996.59
2022-12-03T08:04:37.613Z,100986.53
2022-12-03T08:07:06.041Z,100991.06
2022-12-03T08:09:33.475Z,100990.53
2022-12-03T08:12:06.342Z,100982.38
2022-12-03T08:14:33.797Z,100982.94
2022-12-03T08:17:01.310Z,100976.00
2022-12-03T08:19:28.716Z,100976.56
2022-12-03T08:22:01.023Z,100982.78
2022-12-03T08:24:30.420Z,100987.16
2022-12-03T08:26:57.941Z,100986.94
2022-12-03T08:29:25.424Z,100996.16
2022-12-03T08:31:57.165Z,100997.00
2022-12-03T08:34:27.795Z,100999.97
2022-12-03T08:37:05.884Z,100997.00
2022-12-03T08:39:39.476Z,100994.94
2022-12-03T08:42:34.038Z,101003.47
2022-12-03T08:45:23.289Z,101007.09
2022-12-03T08:47:50.764Z,101006.63
2022-12-03T08:50:31.400Z,100992.75
2022-12-03T08:53:35.494Z,100998.31
2022-12-03T08:56:19.040Z,100995.59
2022-12-03T08:58:48.894Z,100991.00
2022-12-03T09:01:28.910Z,101001.44
2022-12-03T09:04:02.347Z,101001.44
2022-12-03T09:06:29.932Z,101004.88
2022-12-03T09:08:58.642Z,101009.06
2022-12-03T09:11:27.555Z,101004.34
2022-12-03T09:13:55.046Z,101004.56
2022-12-03T09:16:22.573Z,101000.19
2022-12-03T09:18:50.009Z,100995.53
2022-12-03T09:21:17.543Z,100991.34
2022-12-03T09:23:44.969Z,100989.47
2022-12-03T09:26:12.408Z,100989.28
2022-12-03T09:28:39.908Z,100990.03
2022-12-03T09:31:07.408Z,100989.84
2022-12-03T09:33:34.927Z,100987.94
2022-12-03T09:36:02.449Z,100989.31
2022-12-03T09:38:29.949Z,100979.94
2022-12-03T09:40:57.398Z,100976.84
2022-12-03T09:43:33.502Z,100972.31
2022-12-03T09:46:12.444Z,100974.91
2022-12-03T09:48:40.628Z,100974.38
2022-12-03T09:51:10.276Z,100970.22
2022-12-03T09:53:41.438Z,100963.09
2022-12-03T09:56:21.019Z,100967.81
2022-12-03T09:58:49.553Z,100955.81
2022-12-03T10:01:18.068Z,100960.28
2022-12-03T10:03:51.077Z,100949.50
2022-12-03T10:06:22.188Z,100960.28
2022-12-03T10:08:53.553Z,100951.94
2022-12-03T10:11:24.360Z,100949.50
2022-12-03T10:13:55.307Z,100949.31
2022-12-03T10:16:23.298Z,100945.34
2022-12-03T10:18:56.247Z,100943.75
2022-12-03T10:21:26.416Z,100940.47
2022-12-03T10:24:26.663Z,100937.34
2022-12-03T10:26:59.846Z,100934.06
2022-12-03T10:29:34.064Z,100927.44
2022-12-03T10:32:06.578Z,100940.47
2022-12-03T10:34:37.050Z,100928.47
2022-12-03T10:37:09.130Z,100928.47
2022-12-03T10:40:08.444Z,100924.81
2022-12-03T10:42:38.568Z,100926.56
2022-12-03T10:45:20.993Z,100919.63
2022-12-03T10:48:12.106Z,100924.81
2022-12-03T10:51:04.694Z,100920.00
2022-12-03T10:53:34.642Z,100921.53
2022-12-03T10:56:05.782Z,100921.22
2022-12-03T10:58:40.504Z,100905.75
2022-12-03T11:01:17.434Z,100904.88
2022-12-03T11:03:45.367Z,100905.41
2022-12-03T11:06:19.223Z,100892.56
2022-12-03T11:08:58.483Z,100905.25
2022-12-03T11:11:31.371Z,100894.28
2022-12-03T11:14:03.687Z,100885.28
2022-12-03T11:16:39.864Z,100890.31
2022-12-03T11:19:13.203Z,100890.31
2022-12-03T11:22:05.374Z,100886.50
2022-12-03T11:24:34.813Z,100888.72
2022-12-03T11:27:02.260Z,100881.13
2022-12-03T11:29:58.879Z,100882.84
2022-12-03T11:32:38.341Z,100880.59
2022-12-03T11:35:27.387Z,100882.34
2022-12-03T11:37:54.848Z,100879.72
2022-12-03T11:40:22.321Z,100874.69
2022-12-03T11:42:49.991Z,100872.06
2022-12-03T11:45:38.005Z,100877.81
2022-12-03T11:48:12.400Z,100876.59
2022-12-03T11:50:53.499Z,100870.88
2022-12-03T11:53:26.004Z,100873.81
2022-12-03T11:56:11.183Z,100874.69
2022-12-03T11:58:42.402Z,100867.56
2022-12-03T12:01:10.058Z,100860.63
2022-12-03T12:03:47.874Z,100861.31
2022-12-03T12:06:18.552Z,100858.72
2022-12-03T12:08:51.977Z,100850.56
2022-12-03T12:11:34.027Z,100856.13
2022-12-03T12:14:06.762Z,100849.84
2022-12-03T12:16:55.078Z,100848.13
2022-12-03T12:19:42.562Z,100847.97
2022-12-03T12:22:20.452Z,100844.81
2022-12-03T12:24:57.960Z,100839.25
2022-12-03T12:27:49.351Z,100842.91
2022-12-03T12:30:19.759Z,100836.31
2022-12-03T12:33:28.898Z,100833.72
2022-12-03T12:35:56.365Z,100831.47
2022-12-03T12:38:24.339Z,100835.28
2022-12-03T12:40:52.649Z,100836.31
2022-12-03T12:43:24.982Z,100830.09
2022-12-03T12:45:55.033Z,100841.00
2022-12-03T12:48:28.285Z,100835.97
2022-12-03T12:51:06.161Z,100828.16
2022-12-03T12:53:35.905Z,100836.50
2022-12-03T12:56:21.289Z,100829.03
2022-12-03T12:58:48.962Z,100822.81
2022-12-03T13:01:26.435Z,100830.59
2022-12-03T13:03:54.784Z,100825.91
2022-12-03T13:06:27.817Z,100828.88
2022-12-03T13:08:56.287Z,100828.00
2022-12-03T13:11:41.967Z,100830.09
2022-12-03T13:14:16.979Z,100828.69
2022-12-03T13:16:45.684Z,100826.59
2022-12-03T13:19:22.894Z,100825.91
2022-12-03T13:21:52.490Z,100823.31
2022-12-03T13:24:53.027Z,100818.44
2022-12-03T13:27:20.541Z,100824.34
2022-12-03T13:30:05.181Z,100824.69
2022-12-03T13:32:36.448Z,100822.28
2022-12-03T13:35:18.459Z,100826.44
2022-12-03T13:37:45.954Z,100825.38
2022-12-03T13:40:19.341Z,100821.06
2022-12-03T13:42:46.864Z,100818.28
2022-12-03T13:45:14.228Z,100825.56
2022-12-03T13:47:44.347Z,100825.03
2022-12-03T13:50:22.275Z,100841.50
2022-12-03T13:52:49.886Z,100834.94
2022-12-03T13:55:25.473Z,100842.56
2022-12-03T13:57:53.666Z,100844.66
2022-12-03T14:00:21.838Z,100845.00
2022-12-03T14:02:49.512Z,100846.06
2022-12-03T14:05:17.343Z,100849.69
2022-12-03T14:07:44.911Z,100841.88
2022-12-03T14:10:13.265Z,100847.94
2022-12-03T14:12:40.775Z,100838.22
2022-12-03T14:15:10.767Z,100840.97
2022-12-03T14:17:38.225Z,100839.25
2022-12-03T14:20:06.497Z,100835.44
2022-12-03T14:22:37.704Z,100839.63
2022-12-03T14:25:06.555Z,100839.25
2022-12-03T14:27:34.424Z,100840.97
2022-12-03T14:30:02.086Z,100847.94
2022-12-03T14:32:29.634Z,100848.09
2022-12-03T14:34:57.094Z,100852.28
2022-12-03T14:37:24.556Z,100866.16
2022-12-03T14:39:52.774Z,100859.19
2022-12-03T14:42:20.497Z,100859.03
2022-12-03T14:44:50.227Z,100860.78
2022-12-03T14:47:20.074Z,100859.03
2022-12-03T14:49:47.601Z,100862.69
2022-12-03T14:52:15.447Z,100862.19
2022-12-03T14:54:43.444Z,100855.22
2022-12-03T14:57:15.385Z,100863.72
2022-12-03T14:59:44.304Z,100856.41
2022-12-03T15:02:12.290Z,100854.53
2022-12-03T15:04:41.256Z,100866.31
2022-12-03T15:07:09.478Z,100859.03
2022-12-03T15:09:37.167Z,100864.94
2022-12-03T15:12:05.028Z,100869.97
2022-12-03T15:14:32.592Z,100864.44
2022-12-03T15:17:00.078Z,100863.53
2022-12-03T15:19:27.633Z,100863.91
2022-12-03T15:21:55.179Z,100860.59
2022-12-03T15:24:22.691Z,100859.91
2022-12-03T15:26:53.380Z,100863.38
2022-12-03T15:29:21.258Z,100865.78
2022-12-03T15:31:48.766Z,100863.91
2022-12-03T15:34:22.149Z,100872.75
2022-12-03T15:36:50.584Z,100865.09
2022-12-03T15:39:18.017Z,100869.97
2022-12-03T15:41:45.433Z,100866.16
2022-12-03T15:44:12.875Z,100866.16
2022-12-03T15:46:40.319Z,100868.59
2022-12-03T15:49:07.784Z,100871.88
2022-12-03T15:51:35.245Z,100869.47
2022-12-03T15:54:02.666Z,100871.03
2022-12-03T15:56:30.085Z,100868.06
2022-12-03T15:58:57.532Z,100868.06
2022-12-03T16:01:25.093Z,100868.25
2022-12-03T16:03:52.631Z,100871.38
2022-12-03T16:06:20.081Z,100871.53
2022-12-03T16:08:48.213Z,100873.28
2022-12-03T16:11:15.957Z,100868.59
2022-12-03T16:13:43.507Z,100868.94
2022-12-03T16:16:11.133Z,100871.38
2022-12-03T16:18:38.683Z,100867.00
2022-12-03T16:21:06.201Z,100866.50
2022-12-03T16:23:33.702Z,100871.19
2022-12-03T16:26:01.117Z,100866.34
2022-12-03T16:28:28.553Z,100872.41
2022-12-03T16:30:56.067Z,100863.22
2022-12-03T16:33:27.450Z,100865.31
2022-12-03T16:35:55.589Z,100857.66
2022-12-03T16:38:23.194Z,100869.13
2022-12-03T16:40:50.628Z,100868.44
2022-12-03T16:43:18.523Z,100871.03
2022-12-03T16:45:45.901Z,100858.69
2022-12-03T16:48:13.378Z,100855.41
2022-12-03T16:50:40.861Z,100859.75
2022-12-03T16:53:08.310Z,100869.47
2022-12-03T16:55:35.734Z,100865.81
2022-12-03T16:58:03.171Z,100862.69
2022-12-03T17:00:30.697Z,100861.50
2022-12-03T17:02:58.446Z,100858.91
2022-12-03T17:05:25.915Z,100865.47
2022-12-03T17:07:53.752Z,100859.59
2022-12-03T17:10:21.295Z,100865.66
2022-12-03T17:13:08.888Z,100858.53
2022-12-03T17:15:36.541Z,100857.66
2022-12-03T17:18:04.281Z,100854.19
2022-12-03T17:20:32.623Z,100866.19
2022-12-03T17:23:01.061Z,100859.22
2022-12-03T17:25:28.697Z,100852.09
2022-12-03T17:27:56.288Z,100868.59
2022-12-03T17:30:23.753Z,100865.63
2022-12-03T17:32:51.268Z,100865.47
2022-12-03T17:35:19.423Z,100870.16
2022-12-03T17:37:46.911Z,100873.97
2022-12-03T17:40:16.991Z,100863.72
2022-12-03T17:42:44.569Z,100866.66
2022-12-03T17:45:13.044Z,100865.63
2022-12-03T17:47:40.538Z,100867.88
2022-12-03T17:50:08.580Z,100860.38
2022-12-03T17:52:35.986Z,100870.63
2022-12-03T17:55:15.639Z,100872.38
2022-12-03T17:57:43.681Z,100878.09
2022-12-03T18:00:11.722Z,100875.84
2022-12-03T18:02:42.542Z,100878.09
2022-12-03T18:05:10.151Z,100864.19
2022-12-03T18:07:37.692Z,100868.03
2022-12-03T18:10:05.920Z,100868.72
2022-12-03T18:12:33.734Z,100866.81
2022-12-03T18:15:01.160Z,100860.91
2022-12-03T18:17:28.676Z,100860.56
2022-12-03T18:19:56.730Z,100856.75
2022-12-03T18:22:24.533Z,100862.81
2022-12-03T18:24:52.260Z,100864.41
2022-12-03T18:27:23.433Z,100869.75
2022-12-03T18:29:51.539Z,100864.41
2022-12-03T18:32:29.411Z,100861.44
2022-12-03T18:34:58.028Z,100866.44
2022-12-03T18:37:29.825Z,100864.91
2022-12-03T18:39:58.485Z,100864.56
2022-12-03T18:42:26.644Z,100862.81
2022-12-03T18:44:56.199Z,100858.31
2022-12-03T18:47:28.140Z,100863.34
2022-12-03T18:49:56.547Z,100870.63
2022-12-03T18:52:25.136Z,100869.06
2022-12-03T18:54:53.147Z,100868.19
2022-12-03T18:57:20.603Z,100870.63
2022-12-03T18:59:48.079Z,100871.28
2022-12-03T19:02:45.885Z,100866.44
2022-12-03T19:05:07.595Z,100865.69
2022-12-03T19:07:35.226Z,100864.50
2022-12-03T19:10:03.165Z,100869.34
2022-12-03T19:12:31.263Z,100869.03
2022-12-03T19:14:58.695Z,100883.44
2022-12-03T19:17:27.283Z,100875.31
2022-12-03T19:19:55.324Z,100875.81
2022-12-03T19:22:23.648Z,100876.16
2022-12-03T19:24:51.183Z,100870.28
2022-12-03T19:27:19.268Z,100867.69
2022-12-03T19:29:49.753Z,100865.75
2022-12-03T19:32:17.591Z,100863.16
2022-12-03T19:34:45.125Z,100865.91
2022-12-03T19:37:12.640Z,100875.13
2022-12-03T19:39:40.090Z,100878.25
2022-12-03T19:42:07.741Z,100865.59
2022-12-03T19:44:35.200Z,100867.72
2022-12-03T19:47:02.712Z,100874.09
2022-12-03T19:49:30.167Z,100867.16
2022-12-03T19:51:57.558Z,100870.09
2022-12-03T19:54:25.121Z,100866.44
2022-12-03T19:56:52.654Z,100867.19
2022-12-03T19:59:20.212Z,100858.47
2022-12-03T20:01:47.804Z,100869.19
2022-12-03T20:04:15.423Z,100859.69
2022-12-03T20:06:42.920Z,100859.34
2022-12-03T20:09:13.038Z,100862.47
2022-12-03T20:11:41.561Z,100856.09
2022-12-03T20:14:12.917Z,100866.69
2022-12-03T20:16:41.179Z,100866.16
2022-12-03T20:19:12.174Z,100864.41
2022-12-03T20:21:40.337Z,100860.22
2022-12-03T20:24:09.901Z,100857.81
2022-12-03T20:26:37.322Z,100854.69
2022-12-03T20:29:04.733Z,100857.28
2022-12-03T20:31:32.521Z,100855.38
2022-12-03T20:34:02.118Z,100858.66
2022-12-03T20:36:31.780Z,100861.78
2022-12-03T20:39:02.175Z,100862.47
2022-12-03T20:41:29.913Z,100858.28
2022-12-03T20:43:57.372Z,100860.03
2022-12-03T20:46:28.851Z,100856.75
2022-12-03T20:48:57.012Z,100861.09
2022-12-03T20:51:27.453Z,100865.56
2022-12-03T20:53:55.616Z,100861.59
2022-12-03T20:56:31.250Z,100874.41
2022-12-03T20:59:07.504Z,100873.75
2022-12-03T21:01:36.149Z,100877.38
2022-12-03T21:04:05.472Z,100879.81
2022-12-03T21:06:35.856Z,100890.19
2022-12-03T21:09:06.512Z,100886.72
2022-12-03T21:11:35.869Z,100884.63
2022-12-03T21:14:04.181Z,100883.06
2022-12-03T21:19:23.357Z,100894.88
2022-12-03T21:21:50.890Z,100895.56
2022-12-03T21:24:18.407Z,100886.91
2022-12-03T21:26:46.069Z,100894.00
2022-12-03T21:29:13.520Z,100903.91
2022-12-03T21:31:40.981Z,100904.94
2022-12-03T21:34:08.720Z,100908.75
2022-12-03T21:36:36.444Z,100905.09
2022-12-03T21:39:05.535Z,100902.00
2022-12-03T21:41:35.104Z,100885.00
2022-12-03T21:44:03.863Z,100879.28
2022-12-03T21:47:11.088Z,100883.22
2022-12-03T21:49:20.254Z,100879.28
2022-12-03T21:51:47.737Z,100884.97
2022-12-03T21:54:15.639Z,100885.97
2022-12-03T21:56:43.068Z,100894.31
2022-12-03T21:59:10.505Z,100888.59
2022-12-03T22:01:39.680Z,100887.88
2022-12-03T22:04:10.222Z,100880.13
2022-12-03T22:06:37.712Z,100884.06
2022-12-03T22:09:05.137Z,100887.19
2022-12-03T22:11:32.656Z,100886.50
2022-12-03T22:14:00.256Z,100884.97
2022-12-03T22:16:27.789Z,100872.44
2022-12-03T22:18:55.237Z,100868.31
2022-12-03T22:21:24.539Z,100862.06
2022-12-03T22:23:52.169Z,100854.59
2022-12-03T22:26:19.958Z,100859.28
2022-12-03T22:28:49.041Z,100858.75
2022-12-03T22:31:18.101Z,100855.84
2022-12-03T22:33:48.377Z,100854.78
2022-12-03T22:36:21.013Z,100849.22
2022-12-03T22:38:50.958Z,100847.88
2022-12-03T22:41:19.516Z,100849.38
2022-12-03T22:43:48.313Z,100850.44
2022-12-03T22:46:16.675Z,100847.13
2022-12-03T22:48:46.429Z,100841.19
2022-12-03T22:51:19.631Z,100842.91
2022-12-03T22:53:47.602Z,100836.69
2022-12-03T22:56:16.004Z,100842.56
2022-12-03T22:58:43.416Z,100839.81
2022-12-03T23:01:24.032Z,100834.25
2022-12-03T23:03:51.808Z,100841.50
2022-12-03T23:06:19.810Z,100828.34
2022-12-03T23:08:47.933Z,100832.31
2022-12-03T23:11:15.916Z,100840.63
2022-12-03T23:13:43.581Z,100850.00
2022-12-03T23:16:16.615Z,100850.50
2022-12-03T23:18:44.913Z,100846.88
2022-12-03T23:21:28.605Z,100845.97
2022-12-03T23:24:01.662Z,100848.91
2022-12-03T23:26:29.227Z,100834.50
2022-12-03T23:28:56.681Z,100830.19
2022-12-03T23:31:30.054Z,100841.47
2022-12-03T23:33:58.939Z,100847.53
2022-12-03T23:36:30.576Z,100832.97
2022-12-03T23:38:58.234Z,100831.75
2022-12-03T23:41:26.339Z,100827.56
2022-12-03T23:43:54.253Z,100830.50
2022-12-03T23:46:24.906Z,100829.66
2022-12-03T23:48:53.045Z,100829.16
2022-12-03T23:51:24.087Z,100820.63
2022-12-03T23:53:53.361Z,100822.19
2022-12-03T23:56:24.504Z,100816.31
2022-12-03T23:58:52.587Z,100818.88
